createdAt,value
2018-10-19T00:01:22.110Z,16.20
2018-10-19T00:03:50.377Z,17.63
2018-10-19T00:06:18.623Z,18.17
2018-10-19T00:08:46.910Z,15.97
2018-10-19T00:11:15.350Z,16.43
2018-10-19T00:13:43.473Z,19.20
2018-10-19T00:16:11.736Z,19.43
2018-10-19T00:18:39.992Z,17.80
2018-10-19T00:21:08.292Z,16.73
2018-10-19T00:23:36.508Z,16.70
2018-10-19T00:26:05.133Z,17.67
2018-10-19T00:28:33.365Z,16.13
2018-10-19T00:31:01.649Z,17.80
2018-10-19T00:33:29.926Z,17.80
2018-10-19T00:35:58.170Z,17.03
2018-10-19T00:38:26.463Z,17.83
2018-10-19T00:40:54.748Z,17.67
2018-10-19T00:43:23.011Z,18.77
2018-10-19T00:45:51.281Z,17.87
2018-10-19T00:48:20.446Z,20.57
2018-10-19T00:50:48.733Z,21.03
2018-10-19T00:53:17.035Z,21.20
2018-10-19T00:55:45.289Z,22.93
2018-10-19T00:58:13.613Z,21.90
2018-10-19T01:00:42.659Z,22.50
2018-10-19T01:03:11.137Z,21.03
2018-10-19T01:05:40.241Z,22.87
2018-10-19T01:08:09.246Z,17.10
2018-10-19T01:10:37.509Z,17.53
2018-10-19T01:13:06.009Z,17.30
2018-10-19T01:15:34.297Z,19.23
2018-10-19T01:18:02.558Z,19.77
2018-10-19T01:20:30.848Z,21.70
2018-10-19T01:22:59.135Z,23.07
2018-10-19T01:25:27.406Z,20.57
2018-10-19T01:27:55.665Z,17.30
2018-10-19T01:30:23.958Z,18.03
2018-10-19T01:32:52.249Z,16.67
2018-10-19T01:35:20.513Z,16.23
2018-10-19T01:37:48.790Z,16.53
2018-10-19T01:40:17.061Z,15.17
2018-10-19T01:42:45.332Z,16.80
2018-10-19T01:45:13.711Z,17.50
2018-10-19T01:47:42.551Z,17.67
2018-10-19T01:50:11.354Z,15.33
2018-10-19T01:52:40.381Z,18.07
2018-10-19T01:55:08.670Z,18.70
2018-10-19T01:57:37.126Z,20.90
2018-10-19T02:00:06.034Z,19.27
2018-10-19T02:02:34.349Z,19.87
2018-10-19T02:05:02.830Z,19.53
2018-10-19T02:07:31.112Z,18.13
2018-10-19T02:09:59.378Z,19.60
2018-10-19T02:12:27.637Z,18.43
2018-10-19T02:14:55.974Z,20.53
2018-10-19T02:17:24.245Z,21.17
2018-10-19T02:19:52.533Z,22.23
2018-10-19T02:22:20.821Z,22.50
2018-10-19T02:24:49.121Z,20.40
2018-10-19T02:27:17.443Z,20.63
2018-10-19T02:29:45.720Z,20.40
2018-10-19T02:32:14.060Z,23.27
2018-10-19T02:34:42.333Z,22.20
2018-10-19T02:37:10.610Z,20.83
2018-10-19T02:39:38.901Z,24.27
2018-10-19T02:42:07.209Z,22.90
2018-10-19T02:44:35.506Z,19.63
2018-10-19T02:47:03.811Z,24.17
2018-10-19T02:49:32.075Z,20.37
2018-10-19T02:52:00.418Z,21.10
2018-10-19T02:54:28.741Z,20.00
2018-10-19T02:56:57.134Z,22.67
2018-10-19T02:59:25.394Z,25.70
2018-10-19T03:01:53.681Z,25.17
2018-10-19T03:04:21.933Z,24.23
2018-10-19T03:06:50.231Z,23.63
2018-10-19T03:09:18.584Z,25.13
2018-10-19T03:11:46.789Z,23.13
2018-10-19T03:14:15.101Z,23.83
2018-10-19T03:16:43.361Z,24.93
2018-10-19T03:19:11.625Z,21.57
2018-10-19T03:21:39.926Z,20.50
2018-10-19T03:24:08.170Z,20.77
2018-10-19T03:26:36.453Z,25.90
2018-10-19T03:29:04.883Z,25.83
2018-10-19T03:31:33.227Z,22.57
2018-10-19T03:34:01.534Z,24.27
2018-10-19T03:36:29.824Z,24.10
2018-10-19T03:38:58.146Z,23.77
2018-10-19T03:41:26.419Z,23.27
2018-10-19T03:43:54.699Z,23.03
2018-10-19T03:46:22.961Z,20.83
2018-10-19T03:48:51.295Z,19.30
2018-10-19T03:51:19.601Z,18.07
2018-10-19T03:53:47.845Z,20.23
2018-10-19T03:56:16.121Z,18.63
2018-10-19T03:58:44.370Z,17.97
2018-10-19T04:01:12.654Z,18.50
2018-10-19T04:03:41.153Z,18.77
2018-10-19T04:06:09.400Z,19.17
2018-10-19T04:08:37.713Z,18.07
2018-10-19T04:11:05.992Z,18.87
2018-10-19T04:13:34.246Z,17.97
2018-10-19T04:16:02.518Z,19.27
2018-10-19T04:18:30.815Z,20.03
2018-10-19T04:20:59.159Z,18.77
2018-10-19T04:23:27.370Z,19.20
2018-10-19T04:25:55.645Z,18.13
2018-10-19T04:28:23.929Z,19.40
2018-10-19T04:30:52.177Z,17.60
2018-10-19T04:33:20.466Z,20.50
2018-10-19T04:35:48.820Z,19.50
2018-10-19T04:38:17.097Z,19.13
2018-10-19T04:40:45.358Z,18.60
2018-10-19T04:43:13.643Z,18.70
2018-10-19T04:45:41.888Z,18.37
2018-10-19T04:48:10.163Z,17.13
2018-10-19T04:50:38.416Z,16.17
2018-10-19T04:53:06.746Z,17.90
2018-10-19T04:55:34.979Z,18.23
2018-10-19T04:58:03.303Z,18.97
2018-10-19T05:00:31.604Z,18.00
2018-10-19T05:02:59.917Z,21.00
2018-10-19T05:05:28.213Z,19.87
2018-10-19T05:07:56.485Z,19.67
2018-10-19T05:10:24.746Z,19.03
2018-10-19T05:12:53.057Z,18.67
2018-10-19T05:15:21.282Z,20.07
2018-10-19T05:17:49.595Z,18.40
2018-10-19T05:20:17.943Z,19.80
2018-10-19T05:22:52.797Z,19.73
2018-10-19T05:25:21.114Z,20.60
2018-10-19T05:27:49.418Z,19.97
2018-10-19T05:30:17.714Z,18.40
2018-10-19T05:32:46.036Z,19.57
2018-10-19T05:35:15.947Z,18.57
2018-10-19T05:37:44.154Z,17.50
2018-10-19T05:40:12.418Z,18.80
2018-10-19T05:42:40.942Z,19.50
2018-10-19T05:45:10.550Z,17.50
2018-10-19T05:47:38.835Z,18.33
2018-10-19T05:50:08.017Z,19.30
2018-10-19T05:52:36.597Z,19.40
2018-10-19T05:55:04.943Z,16.47
2018-10-19T05:57:33.382Z,19.03
2018-10-19T06:00:01.913Z,18.43
2018-10-19T06:02:30.689Z,20.10
2018-10-19T06:04:58.962Z,18.30
2018-10-19T06:07:27.234Z,16.40
2018-10-19T06:09:55.523Z,19.33
2018-10-19T06:12:23.791Z,17.13
2018-10-19T06:14:52.054Z,19.73
2018-10-19T06:17:20.358Z,21.53
2018-10-19T06:19:48.635Z,21.37
2018-10-19T06:22:16.982Z,20.33
2018-10-19T06:24:45.326Z,16.37
2018-10-19T06:27:13.659Z,19.97
2018-10-19T06:29:41.927Z,18.50
2018-10-19T06:32:10.270Z,15.83
2018-10-19T06:34:38.469Z,17.17
2018-10-19T06:37:06.767Z,17.90
2018-10-19T06:39:35.074Z,18.80
2018-10-19T06:42:03.447Z,17.83
2018-10-19T06:44:31.813Z,18.53
2018-10-19T06:47:00.356Z,20.17
2018-10-19T06:49:28.801Z,21.07
2018-10-19T06:51:57.194Z,19.93
2018-10-19T06:54:25.456Z,19.93
2018-10-19T06:56:53.699Z,21.07
2018-10-19T06:59:22.043Z,20.20
2018-10-19T07:01:50.334Z,19.90
2018-10-19T07:04:18.622Z,19.70
2018-10-19T07:06:47.045Z,21.37
2018-10-19T07:09:15.320Z,21.83
2018-10-19T07:11:43.602Z,20.70
2018-10-19T07:14:12.022Z,18.63
2018-10-19T07:16:40.347Z,19.27
2018-10-19T07:19:08.703Z,18.57
2018-10-19T07:21:36.899Z,18.73
2018-10-19T07:24:05.414Z,22.27
2018-10-19T07:26:33.762Z,23.00
2018-10-19T07:29:02.069Z,22.20
2018-10-19T07:31:30.319Z,24.63
2018-10-19T07:33:58.606Z,18.50
2018-10-19T07:36:27.023Z,18.87
2018-10-19T07:38:55.250Z,17.70
2018-10-19T07:41:23.534Z,19.27
2018-10-19T07:43:51.971Z,18.60
2018-10-19T07:46:20.418Z,19.57
2018-10-19T07:48:48.695Z,20.60
2018-10-19T07:51:16.957Z,21.97
2018-10-19T07:53:45.219Z,18.73
2018-10-19T07:56:13.562Z,23.47
2018-10-19T07:58:41.957Z,20.93
2018-10-19T08:01:10.241Z,24.53
2018-10-19T08:03:38.522Z,18.90
2018-10-19T08:06:06.771Z,21.33
2018-10-19T08:08:35.037Z,21.30
2018-10-19T08:11:03.389Z,20.00
2018-10-19T08:13:31.629Z,20.23
2018-10-19T08:15:59.913Z,25.77
2018-10-19T08:18:28.172Z,20.87
2018-10-19T08:20:56.533Z,25.87
2018-10-19T08:23:24.805Z,25.73
2018-10-19T08:25:53.150Z,25.60
2018-10-19T08:28:21.399Z,26.40
2018-10-19T08:30:49.694Z,28.33
2018-10-19T08:33:18.042Z,24.40
2018-10-19T08:35:46.310Z,23.63
2018-10-19T08:38:14.779Z,27.67
2018-10-19T08:40:43.013Z,23.77
2018-10-19T08:43:11.380Z,29.53
2018-10-19T08:45:39.574Z,24.93
2018-10-19T08:48:07.858Z,21.87
2018-10-19T08:50:36.121Z,27.53
2018-10-19T08:53:04.623Z,28.40
2018-10-19T08:55:32.826Z,25.70
2018-10-19T08:58:01.468Z,25.33
2018-10-19T09:00:29.647Z,25.57
2018-10-19T09:02:58.045Z,25.53
2018-10-19T09:05:26.276Z,26.27
2018-10-19T09:07:54.582Z,25.90
2018-10-19T09:10:22.901Z,26.47
2018-10-19T09:12:51.267Z,30.50
2018-10-19T09:15:19.550Z,26.13
2018-10-19T09:17:47.757Z,31.73
2018-10-19T09:20:16.023Z,29.43
2018-10-19T09:22:44.308Z,32.00
2018-10-19T09:25:12.588Z,30.60
2018-10-19T09:27:40.882Z,35.23
2018-10-19T09:30:09.199Z,24.03
2018-10-19T09:32:37.476Z,24.57
2018-10-19T09:35:05.903Z,28.03
2018-10-19T09:37:34.128Z,29.53
2018-10-19T09:40:02.499Z,25.47
2018-10-19T09:42:30.729Z,28.47
2018-10-19T09:44:59.032Z,37.30
2018-10-19T09:47:27.307Z,34.77
2018-10-19T09:49:55.574Z,34.90
2018-10-19T09:52:23.867Z,27.27
2018-10-19T09:54:52.157Z,27.63
2018-10-19T09:57:20.434Z,32.00
2018-10-19T09:59:48.716Z,34.90
2018-10-19T10:02:17.007Z,27.97
2018-10-19T10:04:45.274Z,24.90
2018-10-19T10:07:13.645Z,35.47
2018-10-19T10:09:41.846Z,37.97
2018-10-19T10:12:10.109Z,44.20
2018-10-19T10:14:38.498Z,36.00
2018-10-19T10:17:06.805Z,36.80
2018-10-19T10:19:35.022Z,34.03
2018-10-19T10:22:03.355Z,31.73
2018-10-19T10:24:31.581Z,37.37
2018-10-19T10:26:59.870Z,33.40
2018-10-19T10:29:28.137Z,33.83
2018-10-19T10:31:56.474Z,28.90
2018-10-19T10:34:24.718Z,30.40
2018-10-19T10:36:52.968Z,30.70
2018-10-19T10:39:21.358Z,35.90
2018-10-19T10:41:49.535Z,33.90
2018-10-19T10:44:17.807Z,31.47
2018-10-19T10:46:46.101Z,30.90
2018-10-19T10:49:14.386Z,41.80
2018-10-19T10:51:42.613Z,32.57
2018-10-19T10:54:10.897Z,28.50
2018-10-19T10:56:39.165Z,28.73
2018-10-19T10:59:07.510Z,37.90
2018-10-19T11:01:35.786Z,35.43
2018-10-19T11:04:04.091Z,37.90
2018-10-19T11:06:32.357Z,36.33
2018-10-19T11:09:00.615Z,39.10
2018-10-19T11:11:28.861Z,32.00
2018-10-19T11:13:57.133Z,32.43
2018-10-19T11:16:25.411Z,29.97
2018-10-19T11:18:53.740Z,28.47
2018-10-19T11:21:21.960Z,28.70
2018-10-19T11:23:50.255Z,36.10
2018-10-19T11:26:18.477Z,35.57
2018-10-19T11:28:46.745Z,31.03
2018-10-19T11:31:15.213Z,36.67
2018-10-19T11:33:43.394Z,39.70
2018-10-19T11:36:11.644Z,30.10
2018-10-19T11:38:40.090Z,28.93
2018-10-19T11:41:08.394Z,29.80
2018-10-19T11:43:36.679Z,28.10
2018-10-19T11:46:05.437Z,32.33
2018-10-19T11:48:33.732Z,40.47
2018-10-19T11:51:02.110Z,39.80
2018-10-19T11:53:30.389Z,40.37
2018-10-19T11:55:58.630Z,37.20
2018-10-19T11:58:26.921Z,27.50
2018-10-19T12:00:55.208Z,36.53
2018-10-19T12:03:23.485Z,30.00
2018-10-19T12:05:51.706Z,28.63
2018-10-19T12:08:20.002Z,24.93
2018-10-19T12:10:48.381Z,39.83
2018-10-19T12:13:16.670Z,37.50
2018-10-19T12:15:44.845Z,39.77
2018-10-19T12:18:13.125Z,37.80
2018-10-19T12:20:41.406Z,36.43
2018-10-19T12:23:09.666Z,37.60
2018-10-19T12:25:37.943Z,33.50
2018-10-19T12:28:06.225Z,31.67
2018-10-19T12:30:34.495Z,34.93
2018-10-19T12:33:02.856Z,35.20
2018-10-19T12:35:31.073Z,34.80
2018-10-19T12:37:59.390Z,35.10
2018-10-19T12:40:27.680Z,35.07
2018-10-19T12:42:55.969Z,35.50
2018-10-19T12:46:38.979Z,31.33
2018-10-19T12:49:07.902Z,31.13
2018-10-19T12:51:36.206Z,33.33
2018-10-19T12:54:05.170Z,31.10
2018-10-19T12:56:33.338Z,31.00
2018-10-19T12:59:01.708Z,33.63
2018-10-19T13:01:30.791Z,32.87
2018-10-19T13:03:59.860Z,31.67
2018-10-19T13:06:28.331Z,34.80
2018-10-19T13:08:56.668Z,33.20
2018-10-19T13:11:25.160Z,35.83
2018-10-19T13:13:54.372Z,32.23
2018-10-19T13:16:22.930Z,33.77
2018-10-19T13:18:51.310Z,31.00
2018-10-19T13:21:19.597Z,32.87
2018-10-19T13:23:47.874Z,32.83
2018-10-19T13:26:16.173Z,34.37
2018-10-19T13:28:44.592Z,26.40
2018-10-19T13:31:12.930Z,31.70
2018-10-19T13:33:41.162Z,33.87
2018-10-19T13:36:09.528Z,33.17
2018-10-19T13:38:37.758Z,30.27
2018-10-19T13:41:06.053Z,33.70
2018-10-19T13:43:34.324Z,34.40
2018-10-19T13:46:02.606Z,32.00
2018-10-19T13:48:30.866Z,31.80
2018-10-19T13:50:59.181Z,34.63
2018-10-19T13:53:27.529Z,34.27
2018-10-19T13:55:55.835Z,29.23
2018-10-19T13:58:24.157Z,34.80
2018-10-19T14:00:52.351Z,33.87
2018-10-19T14:03:20.617Z,33.87
2018-10-19T14:05:49.847Z,33.77
2018-10-19T14:08:18.123Z,33.17
2018-10-19T14:10:46.455Z,33.40
2018-10-19T14:13:14.732Z,35.53
2018-10-19T14:15:43.109Z,35.17
2018-10-19T14:18:12.122Z,30.00
2018-10-19T14:20:40.414Z,34.37
2018-10-19T14:23:08.736Z,33.83
2018-10-19T14:25:37.013Z,35.13
2018-10-19T14:28:05.574Z,35.50
2018-10-19T14:30:33.879Z,34.10
2018-10-19T14:33:02.153Z,35.17
2018-10-19T14:35:30.425Z,34.10
2018-10-19T14:37:58.682Z,33.93
2018-10-19T14:40:26.971Z,35.07
2018-10-19T14:42:55.277Z,37.00
2018-10-19T14:45:23.571Z,28.70
2018-10-19T14:47:51.920Z,38.00
2018-10-19T14:50:21.540Z,33.90
2018-10-19T14:52:49.900Z,36.87
2018-10-19T14:55:19.200Z,32.03
2018-10-19T14:57:47.523Z,36.90
2018-10-19T15:00:17.194Z,35.53
2018-10-19T15:02:45.573Z,33.70
2018-10-19T15:05:17.578Z,35.97
2018-10-19T15:07:45.837Z,34.60
2018-10-19T15:10:16.283Z,32.83
2018-10-19T15:12:44.634Z,33.37
2018-10-19T15:15:15.098Z,36.43
2018-10-19T15:17:47.769Z,35.57
2018-10-19T15:20:16.558Z,32.93
2018-10-19T15:22:45.261Z,35.67
2018-10-19T15:25:13.555Z,36.17
2018-10-19T15:27:43.213Z,34.90
2018-10-19T15:30:13.051Z,34.67
2018-10-19T15:32:42.137Z,31.03
2018-10-19T15:35:10.654Z,31.93
2018-10-19T15:37:39.213Z,33.93
2018-10-19T15:40:08.334Z,31.80
2018-10-19T15:42:36.653Z,33.93
2018-10-19T15:45:06.277Z,29.87
2018-10-19T15:47:34.437Z,34.43
2018-10-19T15:50:02.745Z,32.90
2018-10-19T15:52:31.002Z,32.50
2018-10-19T15:54:59.280Z,29.90
2018-10-19T15:57:27.632Z,30.00
2018-10-19T15:59:55.947Z,33.27
2018-10-19T16:02:24.244Z,32.73
2018-10-19T16:04:52.519Z,29.53
2018-10-19T16:07:20.822Z,31.47
2018-10-19T16:09:49.225Z,28.97
2018-10-19T16:12:17.523Z,27.13
2018-10-19T16:14:45.822Z,28.83
2018-10-19T16:17:14.143Z,27.77
2018-10-19T16:19:42.784Z,27.40
2018-10-19T16:22:11.065Z,29.63
2018-10-19T16:24:40.333Z,28.50
2018-10-19T16:27:08.684Z,27.23
2018-10-19T16:29:36.861Z,28.57
2018-10-19T16:32:05.589Z,31.20
2018-10-19T16:34:33.949Z,33.37
2018-10-19T16:37:02.157Z,27.77
2018-10-19T16:39:30.511Z,28.73
2018-10-19T16:41:58.783Z,29.67
2018-10-19T16:44:27.082Z,30.23
2018-10-19T16:46:55.427Z,32.53
2018-10-19T16:49:23.796Z,32.27
2018-10-19T16:51:52.072Z,30.77
2018-10-19T16:54:20.337Z,31.83
2018-10-19T16:56:48.636Z,30.20
2018-10-19T16:59:16.887Z,31.73
2018-10-19T17:01:45.168Z,32.00
2018-10-19T17:04:13.496Z,30.90
2018-10-19T17:06:41.740Z,32.33
2018-10-19T17:09:11.364Z,31.10
2018-10-19T17:11:40.062Z,30.13
2018-10-19T17:14:14.998Z,30.27
2018-10-19T17:16:43.257Z,33.57
2018-10-19T17:19:11.572Z,32.10
2018-10-19T17:21:39.793Z,31.80
2018-10-19T17:24:08.125Z,31.70
2018-10-19T17:26:36.373Z,28.53
2018-10-19T17:29:04.952Z,27.87
2018-10-19T17:31:33.231Z,26.67
2018-10-19T17:34:01.466Z,28.80
2018-10-19T17:36:29.734Z,31.90
2018-10-19T17:38:58.017Z,29.67
2018-10-19T17:41:26.330Z,32.33
2018-10-19T17:43:54.788Z,33.27
2018-10-19T17:46:23.117Z,34.03
2018-10-19T17:48:51.770Z,36.13
2018-10-19T17:51:20.038Z,37.80
2018-10-19T17:53:48.393Z,38.00
2018-10-19T17:56:16.613Z,34.70
2018-10-19T17:58:44.883Z,35.17
2018-10-19T18:01:13.197Z,33.33
2018-10-19T18:03:41.478Z,34.73
2018-10-19T18:06:09.787Z,32.67
2018-10-19T18:08:38.106Z,34.47
2018-10-19T18:11:07.178Z,33.70
2018-10-19T18:13:35.615Z,31.40
2018-10-19T18:16:03.975Z,30.23
2018-10-19T18:18:32.199Z,31.33
2018-10-19T18:21:00.782Z,29.83
2018-10-19T18:23:29.126Z,30.40
2018-10-19T18:25:57.377Z,30.60
2018-10-19T18:28:25.969Z,27.87
2018-10-19T18:30:54.277Z,31.63
2018-10-19T18:33:22.666Z,30.40
2018-10-19T18:35:51.017Z,29.03
2018-10-19T18:38:19.279Z,30.13
2018-10-19T18:40:47.566Z,33.53
2018-10-19T18:43:15.832Z,33.13
2018-10-19T18:45:44.101Z,32.77
2018-10-19T18:48:12.390Z,29.00
2018-10-19T18:50:40.739Z,32.37
2018-10-19T18:53:09.023Z,33.67
2018-10-19T18:55:37.183Z,31.20
2018-10-19T18:58:05.490Z,31.30
2018-10-19T19:00:33.760Z,29.23
2018-10-19T19:03:02.043Z,29.80
2018-10-19T19:05:30.322Z,31.90
2018-10-19T19:07:58.592Z,28.87
2018-10-19T19:10:26.844Z,27.77
2018-10-19T19:13:00.480Z,26.00
2018-10-19T19:15:28.740Z,29.00
2018-10-19T19:17:57.014Z,24.67
2018-10-19T19:20:28.615Z,24.97
2018-10-19T19:22:56.952Z,27.47
2018-10-19T19:26:30.885Z,25.70
2018-10-19T19:28:59.368Z,28.90
2018-10-19T19:31:27.717Z,30.53
2018-10-19T19:34:01.398Z,29.93
2018-10-19T19:36:29.716Z,30.93
2018-10-19T19:38:57.981Z,31.80
2018-10-19T19:41:31.610Z,30.77
2018-10-19T19:43:59.935Z,29.97
2018-10-19T19:46:28.181Z,29.27
2018-10-19T19:49:01.961Z,28.97
2018-10-19T19:51:30.474Z,28.33
2018-10-19T19:53:58.761Z,26.00
2018-10-19T19:56:27.098Z,27.27
2018-10-19T19:58:55.440Z,25.33
2018-10-19T20:01:23.897Z,27.60
2018-10-19T20:03:52.321Z,28.03
2018-10-19T20:06:20.675Z,25.70
2018-10-19T20:08:48.870Z,27.30
2018-10-19T20:11:17.122Z,34.23
2018-10-19T20:13:45.378Z,31.63
2018-10-19T20:16:13.662Z,32.57
2018-10-19T20:18:41.922Z,33.27
2018-10-19T20:21:10.341Z,30.90
2018-10-19T20:23:38.730Z,31.70
2018-10-19T20:26:07.141Z,30.27
2018-10-19T20:28:35.391Z,29.10
2018-10-19T20:31:03.653Z,28.57
2018-10-19T20:33:31.971Z,24.63
2018-10-19T20:36:00.330Z,27.53
2018-10-19T20:38:28.662Z,28.17
2018-10-19T20:40:56.954Z,28.00
2018-10-19T20:43:25.133Z,28.37
2018-10-19T20:45:53.397Z,28.87
2018-10-19T20:48:21.850Z,27.73
2018-10-19T20:50:50.169Z,29.80
2018-10-19T20:53:18.423Z,28.10
2018-10-19T20:55:46.686Z,25.63
2018-10-19T20:58:14.962Z,28.63
2018-10-19T21:00:43.303Z,28.47
2018-10-19T21:03:11.496Z,29.50
2018-10-19T21:05:39.761Z,29.83
2018-10-19T21:08:08.081Z,28.53
2018-10-19T21:10:36.326Z,28.10
2018-10-19T21:13:04.650Z,29.63
2018-10-19T21:15:32.901Z,28.40
2018-10-19T21:18:01.178Z,27.63
2018-10-19T21:20:29.438Z,27.07
2018-10-19T21:22:57.738Z,26.07
2018-10-19T21:25:25.952Z,26.73
2018-10-19T21:27:54.284Z,32.37
2018-10-19T21:30:22.534Z,30.40
2018-10-19T21:32:50.781Z,30.03
2018-10-19T21:35:19.052Z,29.07
2018-10-19T21:37:47.374Z,30.17
2018-10-19T21:40:15.692Z,29.87
2018-10-19T21:42:44.019Z,31.03
2018-10-19T21:45:12.291Z,28.37
2018-10-19T21:47:40.537Z,29.00
2018-10-19T21:50:09.564Z,28.53
2018-10-19T21:52:37.809Z,28.43
2018-10-19T21:55:06.889Z,28.70
2018-10-19T21:57:35.183Z,27.93
2018-10-19T22:00:03.512Z,29.93
2018-10-19T22:02:31.769Z,30.57
2018-10-19T22:05:00.059Z,30.87
2018-10-19T22:07:28.333Z,27.77
2018-10-19T22:09:56.562Z,29.63
2018-10-19T22:12:24.809Z,29.57
2018-10-19T22:14:53.130Z,29.63
2018-10-19T22:17:21.381Z,27.83
2018-10-19T22:19:49.637Z,26.93
2018-10-19T22:22:17.926Z,27.83
2018-10-19T22:24:46.214Z,28.37
2018-10-19T22:27:14.458Z,29.20
2018-10-19T22:29:42.732Z,29.07
2018-10-19T22:32:11.082Z,26.63
2018-10-19T22:34:39.378Z,26.87
2018-10-19T22:37:07.656Z,27.30
2018-10-19T22:39:35.917Z,27.83
2018-10-19T22:42:04.192Z,30.23
2018-10-19T22:44:32.618Z,33.03
2018-10-19T22:47:00.913Z,33.67
2018-10-19T22:49:29.165Z,32.10
2018-10-19T22:51:57.460Z,31.60
2018-10-19T22:54:25.728Z,30.67
2018-10-19T22:56:54.006Z,29.00
2018-10-19T22:59:22.295Z,29.33
2018-10-19T23:01:50.587Z,29.33
2018-10-19T23:04:18.863Z,29.13
2018-10-19T23:06:47.262Z,29.70
2018-10-19T23:09:15.524Z,28.30
2018-10-19T23:11:43.773Z,27.87
2018-10-19T23:14:12.066Z,29.90
2018-10-19T23:16:40.371Z,29.63
2018-10-19T23:19:08.704Z,30.57
2018-10-19T23:21:37.027Z,27.30
2018-10-19T23:24:05.831Z,26.73
2018-10-19T23:26:34.199Z,27.30
2018-10-19T23:29:02.530Z,29.60
2018-10-19T23:31:30.937Z,29.37
2018-10-19T23:33:59.126Z,28.97
2018-10-19T23:36:27.408Z,31.40
2018-10-19T23:38:55.690Z,30.03
2018-10-19T23:41:23.951Z,29.47
2018-10-19T23:43:52.314Z,27.73
2018-10-19T23:46:20.537Z,27.43
2018-10-19T23:48:48.793Z,29.30
2018-10-19T23:51:17.138Z,28.50
2018-10-19T23:53:45.415Z,30.57
2018-10-19T23:56:13.661Z,29.00
2018-10-19T23:58:41.950Z,29.73
